Time,TemperatureF,DewpointF,PressureIn,WindDirection,WindDirectionDegrees,WindSpeedMPH,WindSpeedGustMPH,Humidity,HourlyPrecipIn,Conditions,Clouds,dailyrainin,SoftwareType,DateUTC
2013-04-02 00:00:00,60.1,59.8,30.03,SW,221,0.0,17.0,99,0.00,,,0.00,Wunderground v.1.15,2013-04-02 05:00:00,
2013-04-02 00:06:00,60.1,59.8,30.03,SW,221,0.0,17.0,99,0.00,,,0.00,Wunderground v.1.15,2013-04-02 05:06:00,
2013-04-02 00:11:00,60.1,59.8,30.04,SW,221,0.0,17.0,99,0.00,,,0.00,Wunderground v.1.15,2013-04-02 05:11:00,
2013-04-02 00:17:00,59.9,59.6,30.03,SW,221,0.0,17.0,99,0.00,,,0.00,Wunderground v.1.15,2013-04-02 05:17:00,
2013-04-02 00:23:00,59.8,59.5,30.03,SW,221,0.0,17.0,99,0.00,,,0.00,Wunderground v.1.15,2013-04-02 05:23:00,
2013-04-02 00:28:00,59.9,59.6,30.04,SW,221,0.0,17.0,99,0.00,,,0.00,Wunderground v.1.15,2013-04-02 05:28:00,
2013-04-02 00:34:00,59.8,59.5,30.04,SW,221,1.0,17.0,99,0.00,,,0.00,Wunderground v.1.15,2013-04-02 05:34:00,
2013-04-02 00:39:00,59.3,59.0,30.04,SW,221,0.0,17.0,99,0.00,,,0.00,Wunderground v.1.15,2013-04-02 05:39:00,
2013-04-02 00:45:00,59.1,58.8,30.04,SW,221,0.0,17.0,99,0.00,,,0.00,Wunderground v.1.15,2013-04-02 05:45:00,
2013-04-02 00:50:00,59.2,58.9,30.04,SW,221,0.0,17.0,99,0.00,,,0.00,Wunderground v.1.15,2013-04-02 05:50:00,
2013-04-02 00:56:00,59.8,59.8,30.04,SW,221,0.0,17.0,100,0.00,,,0.00,Wunderground v.1.15,2013-04-02 05:56:00,
2013-04-02 01:01:00,59.0,59.0,30.04,SW,221,0.0,17.0,100,0.00,,,0.00,Wunderground v.1.15,2013-04-02 06:01:00,
2013-04-02 01:07:00,59.1,59.1,30.04,SW,221,0.0,17.0,100,0.00,,,0.00,Wunderground v.1.15,2013-04-02 06:07:00,
2013-04-02 01:13:00,59.6,59.6,30.04,SW,221,0.0,17.0,100,0.00,,,0.00,Wunderground v.1.15,2013-04-02 06:13:00,
2013-04-02 01:19:00,59.7,59.7,30.04,SW,221,0.0,17.0,100,0.00,,,0.00,Wunderground v.1.15,2013-04-02 06:19:00,
2013-04-02 01:25:00,59.3,59.3,30.05,SW,221,0.0,17.0,100,0.00,,,0.00,Wunderground v.1.15,2013-04-02 06:25:00,
2013-04-02 01:31:00,59.3,59.3,30.04,SW,221,0.0,17.0,100,0.00,,,0.00,Wunderground v.1.15,2013-04-02 06:31:00,
2013-04-02 01:37:00,58.9,58.9,30.04,SW,221,0.0,17.0,100,0.00,,,0.00,Wunderground v.1.15,2013-04-02 06:37:00,
2013-04-02 01:43:00,58.6,58.6,30.05,SW,221,0.0,17.0,100,0.00,,,0.00,Wunderground v.1.15,2013-04-02 06:43:00,
2013-04-02 01:48:00,58.4,58.4,30.05,SW,221,0.0,17.0,100,0.00,,,0.00,Wunderground v.1.15,2013-04-02 06:48:00,
2013-04-02 01:54:00,58.8,58.8,30.04,SW,221,0.0,17.0,100,0.00,,,0.00,Wunderground v.1.15,2013-04-02 06:54:00,
2013-04-02 01:59:00,58.9,58.9,30.05,SW,221,0.0,17.0,100,0.00,,,0.00,Wunderground v.1.15,2013-04-02 06:59:00,
2013-04-02 02:05:00,58.9,58.9,30.05,SW,221,0.0,17.0,100,0.00,,,0.00,Wunderground v.1.15,2013-04-02 07:05:00,
2013-04-02 02:11:00,58.6,58.6,30.05,SW,221,0.0,17.0,100,0.00,,,0.00,Wunderground v.1.15,2013-04-02 07:11:00,
2013-04-02 02:16:00,58.5,58.5,30.04,SW,221,0.0,17.0,100,0.00,,,0.00,Wunderground v.1.15,2013-04-02 07:16:00,
2013-04-02 02:22:00,58.0,58.0,30.05,SW,221,0.0,17.0,100,0.00,,,0.00,Wunderground v.1.15,2013-04-02 07:22:00,
2013-04-02 02:27:00,57.7,57.7,30.04,SW,221,0.0,17.0,100,0.00,,,0.00,Wunderground v.1.15,2013-04-02 07:27:00,
2013-04-02 02:33:00,57.4,57.4,30.04,SW,221,0.0,17.0,100,0.00,,,0.00,Wunderground v.1.15,2013-04-02 07:33:00,
2013-04-02 02:38:00,57.1,57.1,30.04,SW,221,0.0,17.0,100,0.00,,,0.00,Wunderground v.1.15,2013-04-02 07:38:00,
2013-04-02 02:44:00,56.7,56.7,30.04,SW,221,0.0,17.0,100,0.00,,,0.00,Wunderground v.1.15,2013-04-02 07:44:00,
2013-04-02 02:49:00,56.2,55.9,30.04,SW,221,0.0,17.0,99,0.00,,,0.00,Wunderground v.1.15,2013-04-02 07:49:00,
2013-04-02 02:55:00,56.1,56.1,30.04,SW,221,0.0,17.0,100,0.00,,,0.00,Wunderground v.1.15,2013-04-02 07:55:00,
2013-04-02 03:01:00,56.0,56.0,30.04,SW,221,0.0,17.0,100,0.00,,,0.00,Wunderground v.1.15,2013-04-02 08:01:00,
2013-04-02 03:06:00,56.5,56.5,30.03,SW,221,0.0,17.0,100,0.00,,,0.00,Wunderground v.1.15,2013-04-02 08:06:00,
2013-04-02 03:11:00,56.3,56.3,30.03,SW,221,0.0,17.0,100,0.00,,,0.00,Wunderground v.1.15,2013-04-02 08:11:00,
2013-04-02 03:17:00,57.0,57.0,30.03,SW,221,0.0,17.0,100,0.00,,,0.00,Wunderground v.1.15,2013-04-02 08:17:00,
2013-04-02 03:23:00,56.9,56.9,30.03,SW,221,0.0,17.0,100,0.00,,,0.00,Wunderground v.1.15,2013-04-02 08:23:00,
2013-04-02 03:28:00,56.4,56.4,30.03,SW,221,0.0,17.0,100,0.00,,,0.00,Wunderground v.1.15,2013-04-02 08:28:00,
2013-04-02 03:33:00,55.9,55.9,30.03,SW,221,0.0,17.0,100,0.00,,,0.00,Wunderground v.1.15,2013-04-02 08:33:00,
2013-04-02 03:38:00,55.2,55.2,30.03,SW,221,0.0,17.0,100,0.00,,,0.00,Wunderground v.1.15,2013-04-02 08:38:00,
2013-04-02 03:44:00,55.1,55.1,30.03,SW,221,0.0,17.0,100,0.00,,,0.00,Wunderground v.1.15,2013-04-02 08:44:00,
2013-04-02 03:50:00,55.1,55.1,30.03,SW,221,0.0,17.0,100,0.00,,,0.00,Wunderground v.1.15,2013-04-02 08:50:00,
2013-04-02 03:56:00,54.5,54.5,30.03,SW,221,0.0,17.0,100,0.00,,,0.00,Wunderground v.1.15,2013-04-02 08:56:00,
2013-04-02 04:01:00,54.0,54.0,30.03,SW,221,0.0,17.0,100,0.00,,,0.00,Wunderground v.1.15,2013-04-02 09:01:00,
2013-04-02 04:07:00,53.8,53.8,30.03,SW,221,0.0,17.0,100,0.00,,,0.00,Wunderground v.1.15,2013-04-02 09:07:00,
2013-04-02 04:12:00,53.7,53.7,30.03,SW,221,0.0,17.0,100,0.00,,,0.01,Wunderground v.1.15,2013-04-02 09:12:00,
2013-04-02 04:18:00,54.5,54.5,30.03,SW,221,0.0,17.0,100,0.00,,,0.01,Wunderground v.1.15,2013-04-02 09:18:00,
2013-04-02 04:24:00,54.4,54.4,30.03,SW,221,0.0,17.0,100,0.00,,,0.01,Wunderground v.1.15,2013-04-02 09:24:00,
2013-04-02 04:30:00,53.9,53.9,30.03,SW,221,0.0,17.0,100,0.00,,,0.01,Wunderground v.1.15,2013-04-02 09:30:00,
2013-04-02 04:36:00,54.4,54.4,30.03,SW,221,0.0,17.0,100,0.00,,,0.01,Wunderground v.1.15,2013-04-02 09:36:00,
2013-04-02 04:42:00,54.5,54.5,30.03,SW,221,0.0,17.0,100,0.00,,,0.01,Wunderground v.1.15,2013-04-02 09:42:00,
2013-04-02 04:48:00,54.7,54.7,30.02,North,359,0.0,17.0,100,0.00,,,0.01,Wunderground v.1.15,2013-04-02 09:48:00,
2013-04-02 04:54:00,55.1,55.1,30.02,NNE,24,0.0,17.0,100,0.00,,,0.01,Wunderground v.1.15,2013-04-02 09:54:00,
2013-04-02 04:59:00,55.1,55.1,30.03,North,356,0.0,17.0,100,0.00,,,0.01,Wunderground v.1.15,2013-04-02 09:59:00,
2013-04-02 05:04:00,54.6,54.6,30.02,North,356,1.0,17.0,100,0.00,,,0.01,Wunderground v.1.15,2013-04-02 10:04:00,
2013-04-02 05:10:00,55.3,55.3,30.02,NE,40,1.0,1.0,100,0.00,,,0.01,Wunderground v.1.15,2013-04-02 10:10:00,
2013-04-02 05:15:00,55.5,55.5,30.02,NE,39,1.0,17.0,100,0.00,,,0.01,Wunderground v.1.15,2013-04-02 10:15:00,
2013-04-02 05:20:00,55.5,55.5,30.02,NE,40,1.0,17.0,100,0.00,,,0.01,Wunderground v.1.15,2013-04-02 10:20:00,
2013-04-02 05:25:00,55.5,55.5,30.02,NE,39,1.0,17.0,100,0.00,,,0.01,Wunderground v.1.15,2013-04-02 10:25:00,
2013-04-02 05:31:00,55.3,55.3,30.02,NNE,12,1.0,17.0,100,0.00,,,0.01,Wunderground v.1.15,2013-04-02 10:31:00,
2013-04-02 05:36:00,55.3,55.3,30.02,North,11,1.0,17.0,100,0.00,,,0.01,Wunderground v.1.15,2013-04-02 10:36:00,
2013-04-02 05:42:00,54.5,54.5,30.03,North,11,1.0,17.0,100,0.00,,,0.01,Wunderground v.1.15,2013-04-02 10:42:00,
2013-04-02 05:47:00,54.2,54.2,30.03,North,11,1.0,17.0,100,0.00,,,0.01,Wunderground v.1.15,2013-04-02 10:47:00,
2013-04-02 05:52:00,54.5,54.5,30.03,North,11,1.0,17.0,100,0.00,,,0.01,Wunderground v.1.15,2013-04-02 10:52:00,
2013-04-02 05:58:00,54.3,54.3,30.03,North,11,0.0,17.0,100,0.00,,,0.01,Wunderground v.1.15,2013-04-02 10:58:00,
2013-04-02 06:04:00,54.1,54.1,30.03,North,11,0.0,17.0,100,0.00,,,0.01,Wunderground v.1.15,2013-04-02 11:04:00,
2013-04-02 06:10:00,54.1,54.1,30.04,North,11,0.0,17.0,100,0.00,,,0.01,Wunderground v.1.15,2013-04-02 11:10:00,
2013-04-02 06:15:00,54.2,54.2,30.04,NNW,347,0.0,17.0,100,0.00,,,0.01,Wunderground v.1.15,2013-04-02 11:15:00,
2013-04-02 06:20:00,54.1,54.1,30.05,NNW,347,0.0,17.0,100,0.00,,,0.01,Wunderground v.1.15,2013-04-02 11:20:00,
2013-04-02 06:25:00,54.2,54.2,30.05,NNW,347,0.0,17.0,100,0.00,,,0.01,Wunderground v.1.15,2013-04-02 11:25:00,
2013-04-02 06:30:00,54.2,54.2,30.06,NNW,347,0.0,17.0,100,0.00,,,0.01,Wunderground v.1.15,2013-04-02 11:30:00,
2013-04-02 06:36:00,54.3,54.3,30.06,NNW,347,0.0,17.0,100,0.00,,,0.01,Wunderground v.1.15,2013-04-02 11:36:00,
2013-04-02 06:42:00,54.4,54.4,30.06,North,349,0.0,17.0,100,0.00,,,0.01,Wunderground v.1.15,2013-04-02 11:42:00,
2013-04-02 06:47:00,54.5,54.5,30.06,NNE,16,0.0,17.0,100,0.00,,,0.01,Wunderground v.1.15,2013-04-02 11:47:00,
2013-04-02 06:53:00,54.3,54.3,30.07,NNE,13,1.0,17.0,100,0.00,,,0.01,Wunderground v.1.15,2013-04-02 11:53:00,
2013-04-02 06:59:00,54.3,54.3,30.07,North,11,1.0,17.0,100,0.00,,,0.01,Wunderground v.1.15,2013-04-02 11:59:00,
2013-04-02 07:04:00,54.2,54.2,30.07,SE,132,1.0,17.0,100,0.00,,,0.01,Wunderground v.1.15,2013-04-02 12:04:00,
2013-04-02 07:09:00,53.7,53.7,30.08,SE,132,1.0,17.0,100,0.00,,,0.01,Wunderground v.1.15,2013-04-02 12:09:00,
2013-04-02 07:15:00,53.9,53.9,30.08,NNE,18,1.0,17.0,100,0.00,,,0.01,Wunderground v.1.15,2013-04-02 12:15:00,
2013-04-02 07:21:00,54.1,54.1,30.07,NNE,12,1.0,17.0,100,0.00,,,0.01,Wunderground v.1.15,2013-04-02 12:21:00,
2013-04-02 07:27:00,54.3,54.3,30.07,NNE,18,1.0,17.0,100,0.00,,,0.01,Wunderground v.1.15,2013-04-02 12:27:00,
2013-04-02 07:33:00,54.4,54.4,30.07,North,359,2.0,17.0,100,0.00,,,0.01,Wunderground v.1.15,2013-04-02 12:33:00,
2013-04-02 07:39:00,54.5,54.5,30.07,NNE,24,2.0,17.0,100,0.00,,,0.01,Wunderground v.1.15,2013-04-02 12:39:00,
2013-04-02 07:44:00,54.7,54.7,30.08,NE,34,2.0,17.0,100,0.00,,,0.01,Wunderground v.1.15,2013-04-02 12:44:00,
2013-04-02 07:50:00,55.0,55.0,30.08,North,8,2.0,2.0,100,0.00,,,0.01,Wunderground v.1.15,2013-04-02 12:50:00,
2013-04-02 07:56:00,55.3,55.3,30.09,NNW,340,2.0,17.0,100,0.00,,,0.01,Wunderground v.1.15,2013-04-02 12:56:00,
2013-04-02 08:02:00,55.7,55.7,30.08,NNE,27,1.0,17.0,100,0.00,,,0.01,Wunderground v.1.15,2013-04-02 13:02:00,
2013-04-02 08:08:00,56.1,56.1,30.09,NNE,15,2.0,17.0,100,0.00,,,0.01,Wunderground v.1.15,2013-04-02 13:08:00,
2013-04-02 08:14:00,56.6,56.6,30.09,NNW,348,2.0,17.0,100,0.00,,,0.01,Wunderground v.1.15,2013-04-02 13:14:00,
2013-04-02 08:20:00,57.2,57.2,30.09,NNW,348,2.0,2.0,100,0.00,,,0.01,Wunderground v.1.15,2013-04-02 13:20:00,
2013-04-02 08:26:00,57.6,57.3,30.09,North,11,2.0,17.0,99,0.00,,,0.01,Wunderground v.1.15,2013-04-02 13:26:00,
2013-04-02 08:32:00,58.3,58.0,30.09,NNW,342,2.0,17.0,99,0.00,,,0.01,Wunderground v.1.15,2013-04-02 13:32:00,
2013-04-02 08:37:00,58.9,58.3,30.10,NNE,15,2.0,17.0,98,0.00,,,0.01,Wunderground v.1.15,2013-04-02 13:37:00,
2013-04-02 08:43:00,59.9,59.0,30.10,North,352,2.0,17.0,97,0.00,,,0.01,Wunderground v.1.15,2013-04-02 13:43:00,
2013-04-02 08:48:00,60.5,59.4,30.10,North,352,2.0,17.0,96,0.00,,,0.01,Wunderground v.1.15,2013-04-02 13:48:00,
2013-04-02 08:54:00,61.4,59.7,30.10,North,9,2.0,17.0,94,0.00,,,0.01,Wunderground v.1.15,2013-04-02 13:54:00,
2013-04-02 09:00:00,61.8,59.5,30.10,NNE,29,2.0,17.0,92,0.00,,,0.01,Wunderground v.1.15,2013-04-02 14:00:00,
2013-04-02 09:06:00,62.5,59.8,30.10,North,1,2.0,17.0,91,0.00,,,0.01,Wunderground v.1.15,2013-04-02 14:06:00,
2013-04-02 09:12:00,63.1,59.8,30.10,North,360,2.0,17.0,89,0.00,,,0.01,Wunderground v.1.15,2013-04-02 14:12:00,
2013-04-02 09:18:00,64.1,60.5,30.10,North,356,1.0,17.0,88,0.00,,,0.01,Wunderground v.1.15,2013-04-02 14:18:00,
2013-04-02 09:23:00,64.2,60.2,30.10,NNW,328,2.0,17.0,87,0.00,,,0.01,Wunderground v.1.15,2013-04-02 14:23:00,
2013-04-02 09:29:00,64.6,60.3,30.10,NW,326,2.0,17.0,86,0.00,,,0.01,Wunderground v.1.15,2013-04-02 14:29:00,
2013-04-02 09:34:00,65.0,60.7,30.10,NE,56,2.0,17.0,86,0.00,,,0.01,Wunderground v.1.15,2013-04-02 14:34:00,
2013-04-02 09:40:00,65.6,61.3,30.10,North,356,1.0,17.0,86,0.00,,,0.01,Wunderground v.1.15,2013-04-02 14:40:00,
2013-04-02 09:46:00,66.9,61.6,30.10,North,354,1.0,17.0,83,0.00,,,0.01,Wunderground v.1.15,2013-04-02 14:46:00,
2013-04-02 09:52:00,67.7,62.0,30.10,East,91,1.0,17.0,82,0.00,,,0.01,Wunderground v.1.15,2013-04-02 14:52:00,
2013-04-02 09:57:00,68.6,62.2,30.11,East,84,1.0,17.0,80,0.00,,,0.01,Wunderground v.1.15,2013-04-02 14:57:00,
2013-04-02 10:03:00,68.7,60.5,30.10,ESE,108,3.0,17.0,75,0.00,,,0.01,Wunderground v.1.15,2013-04-02 15:03:00,
2013-04-02 10:08:00,68.4,59.8,30.10,East,94,5.0,17.0,74,0.00,,,0.01,Wunderground v.1.15,2013-04-02 15:08:00,
2013-04-02 10:14:00,68.1,59.9,30.10,East,84,5.0,17.0,75,0.00,,,0.01,Wunderground v.1.15,2013-04-02 15:14:00,
2013-04-02 10:19:00,68.1,58.3,30.11,ENE,74,6.0,17.0,71,0.00,,,0.01,Wunderground v.1.15,2013-04-02 15:19:00,
2013-04-02 10:24:00,68.2,58.8,30.10,East,85,6.0,17.0,72,0.00,,,0.01,Wunderground v.1.15,2013-04-02 15:24:00,
2013-04-02 10:30:00,68.4,57.8,30.10,ESE,104,6.0,6.0,69,0.00,,,0.01,Wunderground v.1.15,2013-04-02 15:30:00,
2013-04-02 10:36:00,68.6,58.4,30.10,East,91,7.0,17.0,70,0.00,,,0.01,Wunderground v.1.15,2013-04-02 15:36:00,
2013-04-02 10:42:00,68.3,58.5,30.11,ESE,104,7.0,17.0,71,0.00,,,0.01,Wunderground v.1.15,2013-04-02 15:42:00,
2013-04-02 10:47:00,68.5,59.1,30.11,ESE,107,8.0,17.0,72,0.00,,,0.01,Wunderground v.1.15,2013-04-02 15:47:00,
2013-04-02 10:52:00,68.8,59.0,30.11,East,98,7.0,17.0,71,0.00,,,0.01,Wunderground v.1.15,2013-04-02 15:52:00,
2013-04-02 10:58:00,69.0,60.0,30.10,East,96,7.0,17.0,73,0.00,,,0.01,Wunderground v.1.15,2013-04-02 15:58:00,
2013-04-02 11:03:00,69.2,59.0,30.10,East,86,7.0,17.0,70,0.00,,,0.01,Wunderground v.1.15,2013-04-02 16:03:00,
2013-04-02 11:08:00,69.4,59.6,30.10,East,94,7.0,17.0,71,0.00,,,0.01,Wunderground v.1.15,2013-04-02 16:08:00,
2013-04-02 11:13:00,69.4,58.8,30.09,ENE,78,7.0,17.0,69,0.00,,,0.01,Wunderground v.1.15,2013-04-02 16:13:00,
2013-04-02 11:18:00,69.3,58.7,30.09,East,82,8.0,17.0,69,0.00,,,0.01,Wunderground v.1.15,2013-04-02 16:18:00,
2013-04-02 11:24:00,69.9,58.9,30.09,ESE,117,8.0,17.0,68,0.00,,,0.01,Wunderground v.1.15,2013-04-02 16:24:00,
2013-04-02 11:30:00,69.6,58.6,30.10,East,92,8.0,8.0,68,0.00,,,0.01,Wunderground v.1.15,2013-04-02 16:30:00,
2013-04-02 11:35:00,69.7,59.1,30.10,East,87,8.0,17.0,69,0.00,,,0.01,Wunderground v.1.15,2013-04-02 16:35:00,
2013-04-02 11:41:00,69.5,58.9,30.09,NE,53,8.0,9.0,69,0.00,,,0.01,Wunderground v.1.15,2013-04-02 16:41:00,
2013-04-02 11:46:00,69.5,60.1,30.09,SE,127,7.0,17.0,72,0.00,,,0.01,Wunderground v.1.15,2013-04-02 16:46:00,
2013-04-02 11:52:00,69.3,58.7,30.09,East,88,8.0,17.0,69,0.00,,,0.01,Wunderground v.1.15,2013-04-02 16:52:00,
2013-04-02 11:57:00,69.4,58.8,30.09,East,96,8.0,17.0,69,0.00,,,0.01,Wunderground v.1.15,2013-04-02 16:57:00,
2013-04-02 12:02:00,69.2,58.6,30.09,East,89,8.0,17.0,69,0.00,,,0.01,Wunderground v.1.15,2013-04-02 17:02:00,
2013-04-02 12:08:00,69.1,58.5,30.09,East,82,8.0,17.0,69,0.00,,,0.01,Wunderground v.1.15,2013-04-02 17:08:00,
2013-04-02 12:14:00,68.7,58.5,30.09,SE,125,8.0,17.0,70,0.00,,,0.01,Wunderground v.1.15,2013-04-02 17:14:00,
2013-04-02 12:19:00,68.3,58.1,30.09,ESE,112,7.0,17.0,70,0.00,,,0.01,Wunderground v.1.15,2013-04-02 17:19:00,
2013-04-02 12:24:00,68.5,58.7,30.09,ESE,108,7.0,17.0,71,0.00,,,0.01,Wunderground v.1.15,2013-04-02 17:24:00,
2013-04-02 12:30:00,68.5,58.3,30.09,East,85,8.0,8.0,70,0.00,,,0.01,Wunderground v.1.15,2013-04-02 17:30:00,
2013-04-02 12:36:00,68.8,59.8,30.08,ESE,117,8.0,17.0,73,0.00,,,0.01,Wunderground v.1.15,2013-04-02 17:36:00,
2013-04-02 12:42:00,69.6,60.2,30.08,East,86,7.0,17.0,72,0.00,,,0.01,Wunderground v.1.15,2013-04-02 17:42:00,
2013-04-02 12:48:00,69.6,59.0,30.08,East,92,7.0,17.0,69,0.00,,,0.01,Wunderground v.1.15,2013-04-02 17:48:00,
2013-04-02 12:53:00,69.6,59.0,30.08,East,100,7.0,17.0,69,0.00,,,0.01,Wunderground v.1.15,2013-04-02 17:53:00,
2013-04-02 12:59:00,69.5,58.1,30.08,East,94,7.0,17.0,67,0.00,,,0.01,Wunderground v.1.15,2013-04-02 17:59:00,
2013-04-02 13:04:00,69.9,58.4,30.08,ESE,104,7.0,17.0,67,0.00,,,0.01,Wunderground v.1.15,2013-04-02 18:04:00,
2013-04-02 13:10:00,69.5,58.5,30.08,ESE,115,7.0,17.0,68,0.00,,,0.01,Wunderground v.1.15,2013-04-02 18:10:00,
2013-04-02 13:15:00,69.9,58.4,30.08,SE,124,8.0,17.0,67,0.00,,,0.01,Wunderground v.1.15,2013-04-02 18:15:00,
2013-04-02 13:22:00,69.5,58.9,30.07,East,94,7.0,17.0,69,0.00,,,0.01,Wunderground v.1.15,2013-04-02 18:22:00,
2013-04-02 13:28:00,69.6,59.0,30.07,ESE,110,7.0,17.0,69,0.00,,,0.01,Wunderground v.1.15,2013-04-02 18:28:00,
2013-04-02 13:34:00,69.8,58.8,30.07,ESE,114,7.0,17.0,68,0.00,,,0.01,Wunderground v.1.15,2013-04-02 18:34:00,
2013-04-02 13:39:00,69.7,59.9,30.07,ESE,113,7.0,17.0,71,0.00,,,0.01,Wunderground v.1.15,2013-04-02 18:39:00,
2013-04-02 13:44:00,69.7,59.1,30.07,SE,126,7.0,17.0,69,0.00,,,0.01,Wunderground v.1.15,2013-04-02 18:44:00,
2013-04-02 13:50:00,69.9,59.7,30.06,East,96,6.0,17.0,70,0.00,,,0.01,Wunderground v.1.15,2013-04-02 18:50:00,
2013-04-02 13:55:00,70.0,59.8,30.07,East,79,6.0,17.0,70,0.00,,,0.01,Wunderground v.1.15,2013-04-02 18:55:00,
2013-04-02 14:01:00,69.8,59.2,30.06,East,89,6.0,7.0,69,0.00,,,0.01,Wunderground v.1.15,2013-04-02 19:01:00,
2013-04-02 14:06:00,69.8,58.8,30.06,ESE,110,6.0,17.0,68,0.00,,,0.01,Wunderground v.1.15,2013-04-02 19:06:00,
2013-04-02 14:12:00,69.6,59.0,30.06,East,99,6.0,17.0,69,0.00,,,0.01,Wunderground v.1.15,2013-04-02 19:12:00,
2013-04-02 14:18:00,69.4,58.8,30.05,SE,146,7.0,17.0,69,0.00,,,0.01,Wunderground v.1.15,2013-04-02 19:18:00,
2013-04-02 14:24:00,69.5,58.9,30.05,East,94,7.0,17.0,69,0.00,,,0.01,Wunderground v.1.15,2013-04-02 19:24:00,
2013-04-02 14:29:00,69.4,59.6,30.05,SE,131,7.0,17.0,71,0.00,,,0.01,Wunderground v.1.15,2013-04-02 19:29:00,
2013-04-02 14:35:00,69.9,59.7,30.05,East,101,6.0,17.0,70,0.00,,,0.01,Wunderground v.1.15,2013-04-02 19:35:00,
2013-04-02 14:40:00,70.1,59.9,30.04,East,86,6.0,17.0,70,0.00,,,0.01,Wunderground v.1.15,2013-04-02 19:40:00,
2013-04-02 14:47:00,70.8,60.1,30.04,ESE,103,6.0,17.0,69,0.00,,,0.01,Wunderground v.1.15,2013-04-02 19:47:00,
2013-04-02 14:52:00,70.9,59.8,30.03,East,101,5.0,17.0,68,0.00,,,0.01,Wunderground v.1.15,2013-04-02 19:52:00,
2013-04-02 14:58:00,70.7,60.0,30.03,East,101,5.0,17.0,69,0.00,,,0.01,Wunderground v.1.15,2013-04-02 19:58:00,
2013-04-02 15:04:00,69.9,59.7,30.03,SE,131,6.0,17.0,70,0.00,,,0.01,Wunderground v.1.15,2013-04-02 20:04:00,
2013-04-02 15:09:00,69.8,60.0,30.03,ESE,110,6.0,17.0,71,0.00,,,0.01,Wunderground v.1.15,2013-04-02 20:09:00,
2013-04-02 15:16:00,69.7,59.9,30.03,ESE,108,6.0,17.0,71,0.00,,,0.01,Wunderground v.1.15,2013-04-02 20:16:00,
2013-04-02 15:22:00,69.7,59.9,30.03,East,94,6.0,17.0,71,0.00,,,0.01,Wunderground v.1.15,2013-04-02 20:22:00,
2013-04-02 15:27:00,70.0,59.8,30.03,East,96,6.0,17.0,70,0.00,,,0.01,Wunderground v.1.15,2013-04-02 20:27:00,
2013-04-02 15:33:00,69.9,59.3,30.02,ENE,57,6.0,17.0,69,0.00,,,0.01,Wunderground v.1.15,2013-04-02 20:33:00,
2013-04-02 15:39:00,70.0,59.4,30.02,ESE,103,6.0,17.0,69,0.00,,,0.01,Wunderground v.1.15,2013-04-02 20:39:00,
2013-04-02 15:44:00,70.2,60.4,30.02,SE,126,6.0,17.0,71,0.00,,,0.01,Wunderground v.1.15,2013-04-02 20:44:00,
2013-04-02 15:50:00,70.3,60.1,30.01,East,86,6.0,6.0,70,0.00,,,0.01,Wunderground v.1.15,2013-04-02 20:50:00,
2013-04-02 15:57:00,70.1,60.3,30.01,East,87,7.0,17.0,71,0.00,,,0.01,Wunderground v.1.15,2013-04-02 20:57:00,
2013-04-02 16:03:00,70.2,60.7,30.00,East,101,7.0,17.0,72,0.00,,,0.01,Wunderground v.1.15,2013-04-02 21:03:00,
2013-04-02 16:09:00,70.4,60.1,30.00,ESE,104,7.0,17.0,70,0.00,,,0.01,Wunderground v.1.15,2013-04-02 21:09:00,
2013-04-02 16:15:00,70.1,61.0,30.00,ESE,112,7.0,17.0,73,0.00,,,0.01,Wunderground v.1.15,2013-04-02 21:15:00,
2013-04-02 16:21:00,69.9,60.5,30.00,East,88,8.0,17.0,72,0.00,,,0.01,Wunderground v.1.15,2013-04-02 21:21:00,
2013-04-02 16:27:00,70.0,60.6,30.00,East,89,8.0,17.0,72,0.00,,,0.01,Wunderground v.1.15,2013-04-02 21:27:00,
2013-04-02 16:33:00,70.1,61.0,29.99,ESE,105,8.0,17.0,73,0.00,,,0.01,Wunderground v.1.15,2013-04-02 21:33:00,
2013-04-02 16:38:00,70.1,60.7,29.99,ESE,113,7.0,17.0,72,0.00,,,0.01,Wunderground v.1.15,2013-04-02 21:38:00,
2013-04-02 16:44:00,69.9,61.6,29.99,ESE,108,7.0,17.0,75,0.00,,,0.01,Wunderground v.1.15,2013-04-02 21:44:00,
2013-04-02 16:50:00,70.3,61.2,29.99,ESE,114,7.0,17.0,73,0.00,,,0.01,Wunderground v.1.15,2013-04-02 21:50:00,
2013-04-02 16:56:00,70.1,61.0,30.00,ESE,107,7.0,17.0,73,0.00,,,0.01,Wunderground v.1.15,2013-04-02 21:56:00,
2013-04-02 17:01:00,69.9,61.6,29.99,East,89,7.0,17.0,75,0.00,,,0.01,Wunderground v.1.15,2013-04-02 22:01:00,
2013-04-02 17:07:00,70.0,61.3,29.99,East,83,7.0,17.0,74,0.00,,,0.01,Wunderground v.1.15,2013-04-02 22:07:00,
2013-04-02 17:12:00,69.9,61.2,29.99,East,89,7.0,17.0,74,0.00,,,0.01,Wunderground v.1.15,2013-04-02 22:12:00,
2013-04-02 17:17:00,69.8,61.5,29.99,East,101,8.0,17.0,75,0.00,,,0.01,Wunderground v.1.15,2013-04-02 22:17:00,
2013-04-02 17:23:00,69.7,61.0,29.98,ENE,60,8.0,17.0,74,0.00,,,0.01,Wunderground v.1.15,2013-04-02 22:23:00,
2013-04-02 17:29:00,69.4,60.4,29.99,ESE,112,7.0,17.0,73,0.00,,,0.01,Wunderground v.1.15,2013-04-02 22:29:00,
2013-04-02 17:34:00,69.1,60.5,29.99,East,84,7.0,17.0,74,0.00,,,0.01,Wunderground v.1.15,2013-04-02 22:34:00,
2013-04-02 17:40:00,69.0,61.1,29.99,East,82,6.0,17.0,76,0.00,,,0.01,Wunderground v.1.15,2013-04-02 22:40:00,
2013-04-02 17:45:00,69.0,61.1,29.98,ESE,108,6.0,17.0,76,0.00,,,0.01,Wunderground v.1.15,2013-04-02 22:45:00,
2013-04-02 17:51:00,69.1,61.2,29.99,East,79,6.0,17.0,76,0.00,,,0.01,Wunderground v.1.15,2013-04-02 22:51:00,
2013-04-02 17:56:00,69.1,61.2,29.99,East,98,5.0,17.0,76,0.00,,,0.01,Wunderground v.1.15,2013-04-02 22:56:00,
2013-04-02 18:02:00,69.0,61.5,29.99,East,84,5.0,17.0,77,0.00,,,0.01,Wunderground v.1.15,2013-04-02 23:02:00,
2013-04-02 18:08:00,68.9,61.0,29.99,ESE,108,6.0,17.0,76,0.00,,,0.01,Wunderground v.1.15,2013-04-02 23:08:00,
2013-04-02 18:13:00,68.9,61.4,29.98,East,84,6.0,17.0,77,0.00,,,0.01,Wunderground v.1.15,2013-04-02 23:13:00,
2013-04-02 18:19:00,68.9,62.1,29.99,SE,134,6.0,17.0,79,0.00,,,0.01,Wunderground v.1.15,2013-04-02 23:19:00,
2013-04-02 18:25:00,68.8,62.0,29.99,ESE,108,5.0,17.0,79,0.00,,,0.01,Wunderground v.1.15,2013-04-02 23:25:00,
2013-04-02 18:33:00,68.7,61.6,29.99,East,94,6.0,17.0,78,0.00,,,0.01,Wunderground v.1.15,2013-04-02 23:33:00,
2013-04-02 18:39:00,68.7,61.9,29.99,SE,130,6.0,17.0,79,0.00,,,0.01,Wunderground v.1.15,2013-04-02 23:39:00,
2013-04-02 18:44:00,68.7,61.9,29.99,East,90,6.0,17.0,79,0.00,,,0.01,Wunderground v.1.15,2013-04-02 23:44:00,
2013-04-02 18:50:00,68.5,62.1,29.99,ESE,104,6.0,6.0,80,0.00,,,0.01,Wunderground v.1.15,2013-04-02 23:50:00,
2013-04-02 18:55:00,68.4,62.3,29.99,ESE,115,6.0,17.0,81,0.00,,,0.01,Wunderground v.1.15,2013-04-02 23:55:00,
2013-04-02 19:01:00,68.4,62.3,29.99,ESE,105,5.0,17.0,81,0.00,,,0.01,Wunderground v.1.15,2013-04-03 00:01:00,
2013-04-02 19:06:00,68.4,62.7,30.00,ESE,110,5.0,17.0,82,0.00,,,0.01,Wunderground v.1.15,2013-04-03 00:06:00,
2013-04-02 19:12:00,68.3,62.6,30.01,SE,126,4.0,17.0,82,0.00,,,0.01,Wunderground v.1.15,2013-04-03 00:12:00,
2013-04-02 19:17:00,68.3,62.9,30.01,SE,134,4.0,17.0,83,0.00,,,0.01,Wunderground v.1.15,2013-04-03 00:17:00,
2013-04-02 19:23:00,68.2,62.8,30.01,ESE,113,4.0,17.0,83,0.00,,,0.01,Wunderground v.1.15,2013-04-03 00:23:00,
2013-04-02 19:28:00,68.1,62.7,30.01,SE,125,4.0,17.0,83,0.00,,,0.01,Wunderground v.1.15,2013-04-03 00:28:00,
2013-04-02 19:34:00,68.0,62.6,30.00,ESE,113,5.0,17.0,83,0.00,,,0.01,Wunderground v.1.15,2013-04-03 00:34:00,
2013-04-02 19:40:00,67.9,62.5,30.00,ESE,108,5.0,5.0,83,0.00,,,0.01,Wunderground v.1.15,2013-04-03 00:40:00,
2013-04-02 19:45:00,67.9,62.9,30.00,ESE,113,5.0,17.0,84,0.00,,,0.01,Wunderground v.1.15,2013-04-03 00:45:00,
2013-04-02 19:51:00,67.9,62.5,30.00,ESE,104,4.0,17.0,83,0.00,,,0.01,Wunderground v.1.15,2013-04-03 00:51:00,
2013-04-02 19:57:00,67.9,62.5,30.00,East,89,5.0,17.0,83,0.00,,,0.01,Wunderground v.1.15,2013-04-03 00:57:00,
2013-04-02 20:02:00,67.9,62.9,30.00,East,98,4.0,17.0,84,0.00,,,0.01,Wunderground v.1.15,2013-04-03 01:02:00,
2013-04-02 20:08:00,67.8,62.8,30.00,SSE,148,3.0,17.0,84,0.00,,,0.01,Wunderground v.1.15,2013-04-03 01:08:00,
2013-04-02 20:13:00,67.8,63.1,30.00,East,98,4.0,17.0,85,0.00,,,0.01,Wunderground v.1.15,2013-04-03 01:13:00,
2013-04-02 20:19:00,67.7,63.4,30.00,East,99,5.0,17.0,86,0.00,,,0.01,Wunderground v.1.15,2013-04-03 01:19:00,
2013-04-02 20:25:00,67.7,63.4,30.01,SE,125,6.0,17.0,86,0.00,,,0.01,Wunderground v.1.15,2013-04-03 01:25:00,
2013-04-02 20:30:00,67.7,63.4,30.00,ESE,116,6.0,17.0,86,0.00,,,0.01,Wunderground v.1.15,2013-04-03 01:30:00,
2013-04-02 20:36:00,67.7,63.7,30.00,ESE,120,6.0,17.0,87,0.00,,,0.01,Wunderground v.1.15,2013-04-03 01:36:00,
2013-04-02 20:41:00,67.6,63.9,30.01,SE,133,6.0,17.0,88,0.00,,,0.01,Wunderground v.1.15,2013-04-03 01:41:00,
2013-04-02 20:47:00,67.5,63.8,30.00,East,89,5.0,17.0,88,0.00,,,0.01,Wunderground v.1.15,2013-04-03 01:47:00,
2013-04-02 20:52:00,67.4,63.7,30.00,SE,131,5.0,17.0,88,0.00,,,0.01,Wunderground v.1.15,2013-04-03 01:52:00,
2013-04-02 20:58:00,67.4,63.7,30.01,ESE,107,6.0,17.0,88,0.00,,,0.01,Wunderground v.1.15,2013-04-03 01:58:00,
2013-04-02 21:03:00,67.4,63.7,30.01,East,101,6.0,17.0,88,0.00,,,0.01,Wunderground v.1.15,2013-04-03 02:03:00,
2013-04-02 21:08:00,67.4,63.7,30.01,ESE,122,5.0,17.0,88,0.00,,,0.01,Wunderground v.1.15,2013-04-03 02:08:00,
2013-04-02 21:14:00,67.3,63.6,30.01,East,86,4.0,17.0,88,0.00,,,0.01,Wunderground v.1.15,2013-04-03 02:14:00,
2013-04-02 21:20:00,67.3,63.9,30.02,ESE,113,4.0,4.0,89,0.00,,,0.01,Wunderground v.1.15,2013-04-03 02:20:00,
2013-04-02 21:25:00,67.2,63.8,30.02,ESE,118,3.0,17.0,89,0.00,,,0.01,Wunderground v.1.15,2013-04-03 02:25:00,
2013-04-02 21:31:00,67.2,63.8,30.02,East,79,3.0,17.0,89,0.00,,,0.01,Wunderground v.1.15,2013-04-03 02:31:00,
2013-04-02 21:37:00,67.3,63.9,30.01,ESE,110,4.0,17.0,89,0.00,,,0.01,Wunderground v.1.15,2013-04-03 02:37:00,
2013-04-02 21:42:00,67.3,63.9,30.00,East,89,5.0,17.0,89,0.00,,,0.01,Wunderground v.1.15,2013-04-03 02:42:00,
2013-04-02 21:48:00,67.4,64.0,30.00,East,88,5.0,17.0,89,0.00,,,0.01,Wunderground v.1.15,2013-04-03 02:48:00,
2013-04-02 21:54:00,67.3,63.9,30.00,ENE,76,5.0,17.0,89,0.00,,,0.01,Wunderground v.1.15,2013-04-03 02:54:00,
2013-04-02 22:00:00,67.4,64.0,30.00,ESE,118,5.0,17.0,89,0.00,,,0.01,Wunderground v.1.15,2013-04-03 03:00:00,
2013-04-02 22:06:00,67.4,64.0,30.00,East,85,6.0,17.0,89,0.00,,,0.01,Wunderground v.1.15,2013-04-03 03:06:00,
2013-04-02 22:13:00,67.5,64.1,30.00,ESE,117,6.0,17.0,89,0.00,,,0.01,Wunderground v.1.15,2013-04-03 03:13:00,
2013-04-02 22:19:00,67.5,64.1,30.00,East,79,6.0,17.0,89,0.00,,,0.01,Wunderground v.1.15,2013-04-03 03:19:00,
2013-04-02 22:25:00,67.4,64.0,29.99,SE,128,7.0,17.0,89,0.00,,,0.01,Wunderground v.1.15,2013-04-03 03:25:00,
2013-04-02 22:30:00,67.4,64.0,30.00,ENE,76,6.0,6.0,89,0.00,,,0.01,Wunderground v.1.15,2013-04-03 03:30:00,
2013-04-02 22:36:00,67.4,64.0,29.99,East,84,6.0,17.0,89,0.00,,,0.01,Wunderground v.1.15,2013-04-03 03:36:00,
2013-04-02 22:41:00,67.4,64.0,29.99,East,94,6.0,17.0,89,0.00,,,0.01,Wunderground v.1.15,2013-04-03 03:41:00,
2013-04-02 22:47:00,67.5,64.1,30.00,SE,138,7.0,17.0,89,0.00,,,0.01,Wunderground v.1.15,2013-04-03 03:47:00,
2013-04-02 22:52:00,67.5,64.1,30.00,East,94,6.0,17.0,89,0.00,,,0.01,Wunderground v.1.15,2013-04-03 03:52:00,
2013-04-02 22:58:00,67.4,64.0,30.00,East,94,6.0,17.0,89,0.00,,,0.01,Wunderground v.1.15,2013-04-03 03:58:00,
2013-04-02 23:00:00,67.4,64.0,30.00,SE,135,6.0,6.0,89,0.00,,,0.01,Wunderground v.1.15,2013-04-03 04:00:00,
2013-04-02 23:03:00,67.4,64.0,29.99,East,94,6.0,17.0,89,0.00,,,0.01,Wunderground v.1.15,2013-04-03 04:03:00,
2013-04-02 23:04:00,67.4,64.0,29.99,East,100,6.0,17.0,89,0.00,,,0.01,Wunderground v.1.15,2013-04-03 04:04:00,
2013-04-02 23:05:00,67.4,64.0,29.99,East,98,6.0,17.0,89,0.00,,,0.01,Wunderground v.1.15,2013-04-03 04:05:00,
2013-04-02 23:11:00,67.4,64.0,30.00,East,86,6.0,17.0,89,0.00,,,0.01,Wunderground v.1.15,2013-04-03 04:11:00,
2013-04-02 23:16:00,67.5,64.1,29.99,East,94,6.0,17.0,89,0.00,,,0.01,Wunderground v.1.15,2013-04-03 04:16:00,
2013-04-02 23:21:00,67.5,64.5,29.98,East,96,6.0,17.0,90,0.00,,,0.01,Wunderground v.1.15,2013-04-03 04:21:00,
2013-04-02 23:26:00,67.4,64.4,29.98,ESE,116,6.0,17.0,90,0.00,,,0.01,Wunderground v.1.15,2013-04-03 04:26:00,
2013-04-02 23:31:00,67.3,64.3,29.97,ENE,65,6.0,17.0,90,0.00,,,0.01,Wunderground v.1.15,2013-04-03 04:31:00,
2013-04-02 23:36:00,67.4,64.4,29.97,East,86,6.0,17.0,90,0.00,,,0.01,Wunderground v.1.15,2013-04-03 04:36:00,
2013-04-02 23:42:00,67.4,64.4,29.98,East,94,6.0,17.0,90,0.00,,,0.01,Wunderground v.1.15,2013-04-03 04:42:00,
2013-04-02 23:47:00,67.5,64.5,29.97,East,82,7.0,17.0,90,0.00,,,0.01,Wunderground v.1.15,2013-04-03 04:47:00,
2013-04-02 23:53:00,67.5,64.5,29.95,ENE,76,7.0,17.0,90,0.00,,,0.01,Wunderground v.1.15,2013-04-03 04:53:00,
2013-04-02 23:59:00,67.5,64.5,29.96,East,82,7.0,17.0,90,0.00,,,0.00,Wunderground v.1.15,2013-04-03 04:59:00,